createdAt,value
2018-02-13T00:00:54.273Z,14.40
2018-02-13T00:03:21.944Z,19.10
2018-02-13T00:05:49.465Z,17.80
2018-02-13T00:08:16.943Z,11.43
2018-02-13T00:10:45.103Z,12.57
2018-02-13T00:13:12.611Z,9.20
2018-02-13T00:15:41.023Z,15.10
2018-02-13T00:18:08.767Z,18.87
2018-02-13T00:20:36.307Z,16.10
2018-02-13T00:23:03.822Z,21.00
2018-02-13T00:25:31.311Z,29.17
2018-02-13T00:27:58.806Z,19.40
2018-02-13T00:30:26.306Z,11.23
2018-02-13T00:32:54.054Z,20.27
2018-02-13T00:35:22.045Z,14.03
2018-02-13T00:37:49.555Z,17.17
2018-02-13T00:40:17.063Z,17.13
2018-02-13T00:42:45.614Z,18.23
2018-02-13T00:45:13.387Z,26.10
2018-02-13T00:47:41.095Z,21.70
2018-02-13T00:50:08.629Z,21.97
2018-02-13T00:52:37.622Z,16.43
2018-02-13T00:55:05.349Z,23.03
2018-02-13T00:57:33.051Z,12.60
2018-02-13T01:00:00.580Z,14.23
2018-02-13T01:02:28.086Z,18.00
2018-02-13T01:04:55.599Z,13.00
2018-02-13T01:07:23.244Z,19.97
2018-02-13T01:09:51.022Z,27.40
2018-02-13T01:12:20.187Z,14.60
2018-02-13T01:14:47.740Z,33.43
2018-02-13T01:17:15.246Z,17.30
2018-02-13T01:19:42.970Z,18.43
2018-02-13T01:22:10.474Z,16.30
2018-02-13T01:24:38.126Z,21.83
2018-02-13T01:27:05.678Z,13.43
2018-02-13T01:29:34.651Z,23.57
2018-02-13T01:32:02.431Z,19.10
2018-02-13T01:34:31.439Z,23.23
2018-02-13T01:36:58.967Z,14.30
2018-02-13T01:39:26.458Z,15.47
2018-02-13T01:41:54.730Z,11.40
2018-02-13T01:44:22.234Z,19.83
2018-02-13T01:46:49.743Z,17.43
2018-02-13T01:49:17.268Z,23.23
2018-02-13T01:51:44.804Z,18.90
2018-02-13T01:54:12.299Z,16.47
2018-02-13T01:56:39.915Z,29.27
2018-02-13T01:59:07.430Z,23.07
2018-02-13T02:01:34.974Z,19.73
2018-02-13T02:04:02.476Z,15.23
2018-02-13T02:06:30.183Z,18.60
2018-02-13T02:08:57.683Z,24.77
2018-02-13T02:11:25.406Z,21.60
2018-02-13T02:13:53.184Z,17.30
2018-02-13T02:16:20.942Z,30.67
2018-02-13T02:18:48.447Z,19.30
2018-02-13T02:21:15.959Z,26.07
2018-02-13T02:23:43.589Z,21.00
2018-02-13T02:26:11.091Z,24.93
2018-02-13T02:28:38.607Z,18.70
2018-02-13T02:31:06.094Z,13.57
2018-02-13T02:33:33.744Z,19.63
2018-02-13T02:36:01.503Z,19.67
2018-02-13T02:38:29.282Z,25.97
2018-02-13T02:40:56.788Z,22.97
2018-02-13T02:43:24.294Z,17.20
2018-02-13T02:45:51.908Z,23.00
2018-02-13T02:48:19.410Z,21.47
2018-02-13T02:50:47.128Z,26.87
2018-02-13T02:53:14.926Z,17.90
2018-02-13T02:55:42.423Z,15.03
2018-02-13T02:58:10.155Z,19.67
2018-02-13T03:00:37.918Z,21.67
2018-02-13T03:03:05.411Z,21.80
2018-02-13T03:05:33.152Z,21.13
2018-02-13T03:08:01.538Z,21.33
2018-02-13T03:10:30.535Z,25.00
2018-02-13T03:12:58.056Z,17.97
2018-02-13T03:15:25.739Z,21.70
2018-02-13T03:17:55.029Z,13.83
2018-02-13T03:20:22.799Z,18.30
2018-02-13T03:22:50.306Z,23.17
2018-02-13T03:25:18.021Z,27.03
2018-02-13T03:27:47.315Z,26.40
2018-02-13T03:30:14.828Z,18.10
2018-02-13T03:32:42.900Z,18.70
2018-02-13T03:35:10.408Z,14.67
2018-02-13T03:37:37.918Z,23.77
2018-02-13T03:40:05.416Z,17.10
2018-02-13T03:42:33.565Z,21.70
2018-02-13T03:45:01.342Z,16.87
2018-02-13T03:47:28.846Z,19.17
2018-02-13T03:49:56.539Z,19.30
2018-02-13T03:52:24.343Z,26.73
2018-02-13T03:54:52.271Z,24.40
2018-02-13T03:57:19.764Z,19.93
2018-02-13T03:59:47.287Z,21.47
2018-02-13T04:02:14.779Z,21.90
2018-02-13T04:04:42.522Z,19.97
2018-02-13T04:07:10.446Z,17.20
2018-02-13T04:09:38.694Z,20.40
2018-02-13T04:12:07.695Z,20.00
2018-02-13T04:14:35.224Z,16.50
2018-02-13T04:17:02.718Z,15.20
2018-02-13T04:19:30.983Z,30.47
2018-02-13T04:21:58.710Z,21.83
2018-02-13T04:24:26.221Z,18.07
2018-02-13T04:26:53.726Z,16.40
2018-02-13T04:29:21.263Z,22.47
2018-02-13T04:31:48.760Z,25.57
2018-02-13T04:34:16.303Z,22.50
2018-02-13T04:36:43.814Z,14.97
2018-02-13T04:39:11.330Z,18.50
2018-02-13T04:41:39.005Z,16.90
2018-02-13T04:44:06.486Z,16.70
2018-02-13T04:46:34.177Z,22.73
2018-02-13T04:49:01.688Z,25.80
2018-02-13T04:51:29.742Z,17.27
2018-02-13T04:53:57.506Z,24.53
2018-02-13T04:56:25.019Z,21.53
2018-02-13T04:58:52.731Z,26.80
2018-02-13T05:01:21.738Z,33.13
2018-02-13T05:03:49.254Z,34.97
2018-02-13T05:06:16.781Z,21.53
2018-02-13T05:08:44.354Z,30.27
2018-02-13T05:11:12.163Z,25.57
2018-02-13T05:13:39.665Z,24.03
2018-02-13T05:16:07.377Z,27.67
2018-02-13T05:18:34.893Z,31.03
2018-02-13T05:21:02.548Z,25.23
2018-02-13T05:23:30.071Z,29.63
2018-02-13T05:25:57.815Z,22.53
2018-02-13T05:28:25.570Z,22.73
2018-02-13T05:30:53.347Z,21.60
2018-02-13T05:33:20.872Z,33.27
2018-02-13T05:35:48.367Z,21.83
2018-02-13T05:38:15.879Z,22.47
2018-02-13T05:40:44.040Z,27.00
2018-02-13T05:43:11.556Z,21.70
2018-02-13T05:45:40.587Z,22.70
2018-02-13T05:48:08.299Z,24.33
2018-02-13T05:50:35.806Z,26.80
2018-02-13T05:53:03.530Z,21.10
2018-02-13T05:55:31.063Z,29.87
2018-02-13T05:57:58.575Z,49.23
2018-02-13T06:00:26.849Z,27.07
2018-02-13T06:02:55.191Z,29.97
2018-02-13T06:05:22.683Z,30.13
2018-02-13T06:07:50.395Z,38.20
2018-02-13T06:10:17.934Z,36.23
2018-02-13T06:12:45.626Z,32.77
2018-02-13T06:15:13.383Z,23.30
2018-02-13T06:17:41.154Z,33.60
2018-02-13T06:20:08.910Z,23.03
2018-02-13T06:22:36.675Z,24.87
2018-02-13T06:25:04.708Z,25.30
2018-02-13T06:27:33.131Z,36.83
2018-02-13T06:30:00.648Z,27.57
2018-02-13T06:32:28.666Z,38.80
2018-02-13T06:34:56.331Z,30.30
2018-02-13T06:37:24.795Z,19.27
2018-02-13T06:39:52.705Z,27.10
2018-02-13T06:42:21.247Z,32.80
2018-02-13T06:44:48.775Z,29.50
2018-02-13T06:47:16.271Z,21.63
2018-02-13T06:49:43.895Z,24.40
2018-02-13T06:52:12.105Z,21.70
2018-02-13T06:54:39.742Z,29.80
2018-02-13T06:57:07.242Z,24.73
2018-02-13T06:59:34.759Z,32.53
2018-02-13T07:02:02.989Z,27.80
2018-02-13T07:04:30.494Z,29.87
2018-02-13T07:06:58.008Z,25.07
2018-02-13T07:09:25.782Z,30.63
2018-02-13T07:11:53.324Z,26.87
2018-02-13T07:14:21.858Z,29.23
2018-02-13T07:16:49.390Z,28.37
2018-02-13T07:19:16.876Z,28.33
2018-02-13T07:21:44.379Z,27.30
2018-02-13T07:24:12.651Z,36.10
2018-02-13T07:26:40.555Z,28.97
2018-02-13T07:29:08.098Z,23.90
2018-02-13T07:31:35.935Z,40.17
2018-02-13T07:34:03.431Z,53.73
2018-02-13T07:36:31.088Z,33.83
2018-02-13T07:38:58.604Z,28.77
2018-02-13T07:41:26.339Z,35.90
2018-02-13T07:43:53.852Z,33.53
2018-02-13T07:46:21.546Z,26.73
2018-02-13T07:48:49.323Z,28.23
2018-02-13T07:51:16.855Z,35.93
2018-02-13T07:53:44.354Z,33.73
2018-02-13T07:56:11.855Z,33.57
2018-02-13T07:58:39.372Z,37.73
2018-02-13T08:01:06.887Z,31.63
2018-02-13T08:03:34.682Z,29.43
2018-02-13T08:06:02.185Z,42.07
2018-02-13T08:08:29.870Z,44.90
2018-02-13T08:10:57.371Z,31.40
2018-02-13T08:13:24.882Z,30.17
2018-02-13T08:15:52.386Z,26.50
2018-02-13T08:18:19.882Z,39.27
2018-02-13T08:20:47.383Z,31.37
2018-02-13T08:23:14.891Z,49.50
2018-02-13T08:25:42.403Z,39.43
2018-02-13T08:28:09.891Z,41.30
2018-02-13T08:30:37.400Z,38.57
2018-02-13T08:33:04.896Z,27.13
2018-02-13T08:35:32.402Z,35.67
2018-02-13T08:37:59.898Z,32.70
2018-02-13T08:40:27.420Z,40.60
2018-02-13T08:42:55.252Z,40.30
2018-02-13T08:45:22.968Z,41.13
2018-02-13T08:47:50.734Z,31.43
2018-02-13T08:50:18.252Z,30.03
2018-02-13T08:52:45.874Z,44.40
2018-02-13T08:55:13.448Z,36.33
2018-02-13T08:57:40.928Z,41.23
2018-02-13T09:00:08.455Z,42.83
2018-02-13T09:02:36.084Z,38.10
2018-02-13T09:05:04.004Z,33.60
2018-02-13T09:07:32.539Z,38.60
2018-02-13T09:10:00.057Z,35.93
2018-02-13T09:12:27.758Z,28.77
2018-02-13T09:14:55.275Z,37.43
2018-02-13T09:17:22.778Z,31.37
2018-02-13T09:19:50.284Z,26.17
2018-02-13T09:22:18.555Z,39.67
2018-02-13T09:24:46.242Z,35.10
2018-02-13T09:27:13.908Z,28.10
2018-02-13T09:29:41.382Z,27.03
2018-02-13T09:32:08.963Z,26.40
2018-02-13T09:34:36.463Z,24.90
2018-02-13T09:37:03.986Z,34.50
2018-02-13T09:39:31.550Z,27.43
2018-02-13T09:41:59.828Z,28.47
2018-02-13T09:44:28.091Z,25.50
2018-02-13T09:46:55.626Z,33.23
2018-02-13T09:49:23.286Z,28.37
2018-02-13T09:51:51.062Z,36.43
2018-02-13T09:54:18.823Z,30.37
2018-02-13T09:56:46.576Z,30.97
2018-02-13T09:59:14.351Z,25.43
2018-02-13T10:01:42.103Z,25.20
2018-02-13T10:04:09.610Z,28.10
2018-02-13T10:06:37.322Z,34.30
2018-02-13T10:09:05.118Z,31.50
2018-02-13T10:11:32.646Z,23.50
2018-02-13T10:14:00.667Z,24.67
2018-02-13T10:16:28.371Z,34.00
2018-02-13T10:18:55.859Z,26.13
2018-02-13T10:21:23.384Z,25.77
2018-02-13T10:23:50.911Z,35.27
2018-02-13T10:26:18.514Z,25.77
2018-02-13T10:28:46.029Z,19.70
2018-02-13T10:31:14.363Z,25.63
2018-02-13T10:33:41.888Z,31.80
2018-02-13T10:36:09.379Z,36.33
2018-02-13T10:38:37.019Z,35.70
2018-02-13T10:41:04.785Z,33.03
2018-02-13T10:43:32.551Z,30.17
2018-02-13T10:46:00.311Z,30.20
2018-02-13T10:48:27.828Z,35.17
2018-02-13T10:50:55.378Z,33.80
2018-02-13T10:53:23.684Z,33.83
2018-02-13T10:55:51.345Z,33.10
2018-02-13T10:58:19.811Z,59.60
2018-02-13T11:00:53.090Z,32.83
2018-02-13T11:03:20.798Z,31.53
2018-02-13T11:05:48.297Z,36.00
2018-02-13T11:08:15.816Z,28.83
2018-02-13T11:10:43.479Z,30.50
2018-02-13T11:13:11.239Z,31.33
2018-02-13T11:15:38.746Z,35.27
2018-02-13T11:18:06.440Z,35.20
2018-02-13T11:20:34.019Z,23.07
2018-02-13T11:23:01.690Z,36.63
2018-02-13T11:25:29.192Z,30.20
2018-02-13T11:27:56.692Z,29.70
2018-02-13T11:30:24.295Z,41.63
2018-02-13T11:32:51.811Z,42.83
2018-02-13T11:35:19.526Z,32.17
2018-02-13T11:37:47.072Z,22.53
2018-02-13T11:40:14.601Z,27.40
2018-02-13T11:42:42.107Z,37.47
2018-02-13T11:45:09.615Z,25.53
2018-02-13T11:47:37.170Z,26.60
2018-02-13T11:50:04.932Z,27.37
2018-02-13T11:52:32.691Z,21.47
2018-02-13T11:55:00.199Z,24.03
2018-02-13T11:57:27.702Z,33.53
2018-02-13T11:59:55.215Z,17.37
2018-02-13T12:02:23.482Z,22.60
2018-02-13T12:04:50.996Z,25.30
2018-02-13T12:07:18.495Z,31.43
2018-02-13T12:09:46.770Z,16.43
2018-02-13T12:12:14.500Z,35.87
2018-02-13T12:14:42.031Z,19.13
2018-02-13T12:17:09.717Z,20.53
2018-02-13T12:19:37.225Z,25.30
2018-02-13T12:22:04.939Z,23.93
2018-02-13T12:24:32.450Z,26.50
2018-02-13T12:26:59.952Z,27.30
2018-02-13T12:29:28.339Z,21.93
2018-02-13T12:31:55.834Z,27.77
2018-02-13T12:34:24.117Z,26.10
2018-02-13T12:36:51.612Z,20.70
2018-02-13T12:39:19.134Z,25.27
2018-02-13T12:41:47.679Z,20.30
2018-02-13T12:44:15.196Z,23.33
2018-02-13T12:46:42.891Z,25.00
2018-02-13T12:49:10.379Z,27.40
2018-02-13T12:51:38.103Z,29.43
2018-02-13T12:54:05.886Z,22.67
2018-02-13T12:56:33.397Z,25.63
2018-02-13T12:59:01.078Z,23.60
2018-02-13T13:01:29.115Z,11.00
2018-02-13T13:03:57.408Z,22.73
2018-02-13T13:06:24.970Z,15.40
2018-02-13T13:08:52.755Z,12.63
2018-02-13T13:11:20.523Z,14.30
2018-02-13T13:13:48.026Z,12.60
2018-02-13T13:16:16.093Z,17.43
2018-02-13T13:18:43.809Z,10.07
2018-02-13T13:21:11.313Z,15.57
2018-02-13T13:23:38.828Z,16.03
2018-02-13T13:26:06.484Z,12.40
2018-02-13T13:28:33.979Z,10.43
2018-02-13T13:31:01.487Z,17.60
2018-02-13T13:33:29.111Z,8.47
2018-02-13T13:35:56.649Z,13.07
2018-02-13T13:38:24.387Z,11.33
2018-02-13T13:40:51.900Z,16.70
2018-02-13T13:43:19.399Z,12.37
2018-02-13T13:45:46.903Z,22.07
2018-02-13T13:48:15.166Z,12.50
2018-02-13T13:50:42.807Z,15.67
2018-02-13T13:53:10.311Z,14.13
2018-02-13T13:55:37.803Z,7.43
2018-02-13T13:58:05.575Z,8.10
2018-02-13T14:00:33.068Z,13.07
2018-02-13T14:03:02.015Z,7.87
2018-02-13T14:05:29.760Z,10.87
2018-02-13T14:07:57.267Z,9.03
2018-02-13T14:10:24.778Z,10.80
2018-02-13T14:12:52.459Z,7.00
2018-02-13T14:15:19.950Z,7.53
2018-02-13T14:17:47.458Z,13.07
2018-02-13T14:20:15.171Z,8.83
2018-02-13T14:22:42.873Z,12.13
2018-02-13T14:25:10.658Z,19.03
2018-02-13T14:27:38.162Z,18.27
2018-02-13T14:30:06.555Z,8.77
2018-02-13T14:32:34.274Z,9.70
2018-02-13T14:35:02.018Z,9.10
2018-02-13T14:37:29.523Z,8.23
2018-02-13T14:39:57.855Z,12.70
2018-02-13T14:42:25.353Z,11.20
2018-02-13T14:44:53.076Z,10.10
2018-02-13T14:47:20.701Z,18.50
2018-02-13T14:49:48.203Z,19.13
2018-02-13T14:52:16.041Z,22.33
2018-02-13T14:54:43.561Z,12.17
2018-02-13T14:57:11.049Z,10.60
2018-02-13T14:59:38.705Z,8.77
2018-02-13T15:02:06.495Z,14.27
2018-02-13T15:04:34.107Z,6.90
2018-02-13T15:07:02.644Z,12.23
2018-02-13T15:09:30.145Z,12.90
2018-02-13T15:11:57.655Z,8.13
2018-02-13T15:14:25.161Z,7.20
2018-02-13T15:16:53.424Z,10.67
2018-02-13T15:19:20.939Z,14.80
2018-02-13T15:21:48.603Z,11.37
2018-02-13T15:24:16.112Z,11.27
2018-02-13T15:26:43.828Z,19.00
2018-02-13T15:29:11.325Z,11.67
2018-02-13T15:31:38.842Z,14.67
2018-02-13T15:34:06.366Z,19.37
2018-02-13T15:36:33.935Z,10.50
2018-02-13T15:39:01.453Z,13.77
2018-02-13T15:41:28.995Z,13.87
2018-02-13T15:43:56.500Z,22.83
2018-02-13T15:46:24.065Z,23.17
2018-02-13T15:48:51.551Z,13.13
2018-02-13T15:51:19.087Z,11.70
2018-02-13T15:53:46.778Z,16.00
2018-02-13T15:56:14.295Z,12.63
2018-02-13T15:58:41.776Z,9.13
2018-02-13T16:01:09.422Z,15.87
2018-02-13T16:03:37.212Z,17.37
2018-02-13T16:06:04.748Z,15.90
2018-02-13T16:08:32.404Z,10.63
2018-02-13T16:10:59.911Z,12.07
2018-02-13T16:13:27.394Z,9.27
2018-02-13T16:15:55.119Z,12.47
2018-02-13T16:18:22.639Z,17.23
2018-02-13T16:20:50.287Z,17.07
2018-02-13T16:23:17.795Z,21.13
2018-02-13T16:25:45.551Z,12.97
2018-02-13T16:28:13.079Z,13.27
2018-02-13T16:30:40.743Z,14.17
2018-02-13T16:33:08.527Z,13.07
2018-02-13T16:35:36.295Z,13.77
2018-02-13T16:38:04.097Z,10.57
2018-02-13T16:40:31.821Z,15.80
2018-02-13T16:42:59.539Z,20.10
2018-02-13T16:45:27.251Z,8.20
2018-02-13T16:47:54.798Z,13.63
2018-02-13T16:50:22.254Z,11.13
2018-02-13T16:52:49.777Z,10.07
2018-02-13T16:55:17.288Z,10.37
2018-02-13T16:57:44.939Z,13.10
2018-02-13T17:00:12.447Z,16.00
2018-02-13T17:02:40.162Z,15.33
2018-02-13T17:05:07.918Z,21.83
2018-02-13T17:07:35.434Z,16.13
2018-02-13T17:10:02.955Z,20.63
2018-02-13T17:12:30.578Z,17.97
2018-02-13T17:14:58.069Z,15.37
2018-02-13T17:17:25.590Z,18.47
2018-02-13T17:19:53.240Z,12.57
2018-02-13T17:22:20.761Z,10.30
2018-02-13T17:24:48.464Z,23.90
2018-02-13T17:27:16.581Z,14.40
2018-02-13T17:29:44.327Z,20.97
2018-02-13T17:32:12.372Z,18.27
2018-02-13T17:34:39.852Z,14.27
2018-02-13T17:37:07.357Z,11.70
2018-02-13T17:39:35.762Z,19.17
2018-02-13T17:42:03.347Z,14.60
2018-02-13T17:44:30.850Z,17.77
2018-02-13T17:46:58.373Z,14.90
2018-02-13T17:49:25.869Z,9.20
2018-02-13T17:51:53.368Z,23.33
2018-02-13T17:54:20.871Z,19.67
2018-02-13T17:56:49.436Z,14.50
2018-02-13T17:59:16.946Z,15.23
2018-02-13T18:01:44.650Z,23.30
2018-02-13T18:04:12.155Z,15.03
2018-02-13T18:06:39.814Z,12.90
2018-02-13T18:09:07.322Z,14.17
2018-02-13T18:11:34.819Z,13.33
2018-02-13T18:14:02.556Z,12.33
2018-02-13T18:16:30.307Z,12.20
2018-02-13T18:18:58.068Z,16.33
2018-02-13T18:21:25.584Z,17.63
2018-02-13T18:23:53.283Z,16.60
2018-02-13T18:26:20.786Z,15.20
2018-02-13T18:28:48.304Z,16.67
2018-02-13T18:31:15.810Z,12.03
2018-02-13T18:33:44.344Z,11.07
2018-02-13T18:36:11.835Z,18.57
2018-02-13T18:38:40.155Z,15.70
2018-02-13T18:41:07.665Z,24.70
2018-02-13T18:43:35.494Z,16.37
2018-02-13T18:46:03.289Z,12.90
2018-02-13T18:48:30.919Z,15.00
2018-02-13T18:50:58.439Z,19.63
2018-02-13T18:53:25.943Z,13.50
2018-02-13T18:55:53.979Z,12.37
2018-02-13T18:58:21.475Z,15.77
2018-02-13T19:00:49.099Z,17.57
2018-02-13T19:03:16.596Z,16.33
2018-02-13T19:05:45.587Z,25.70
2018-02-13T19:08:14.081Z,16.30
2018-02-13T19:10:42.652Z,13.77
2018-02-13T19:13:10.243Z,15.73
2018-02-13T19:15:37.854Z,17.90
2018-02-13T19:18:05.350Z,16.90
2018-02-13T19:20:32.887Z,26.33
2018-02-13T19:23:00.938Z,11.53
2018-02-13T19:25:28.566Z,21.40
2018-02-13T19:27:56.371Z,18.20
2018-02-13T19:30:23.895Z,18.73
2018-02-13T19:32:51.389Z,23.20
2018-02-13T19:35:18.888Z,18.73
2018-02-13T19:37:47.151Z,18.43
2018-02-13T19:40:14.882Z,11.70
2018-02-13T19:42:42.390Z,18.47
2018-02-13T19:45:09.883Z,14.30
2018-02-13T19:47:37.387Z,28.33
2018-02-13T19:50:05.683Z,15.50
2018-02-13T19:52:33.999Z,20.93
2018-02-13T19:55:01.517Z,19.00
2018-02-13T19:57:29.796Z,18.20
2018-02-13T19:59:57.588Z,12.30
2018-02-13T20:02:25.089Z,19.73
2018-02-13T20:04:52.829Z,17.37
2018-02-13T20:07:20.431Z,15.10
2018-02-13T20:09:48.750Z,13.73
2018-02-13T20:12:16.262Z,9.80
2018-02-13T20:14:44.528Z,11.23
2018-02-13T20:17:12.279Z,25.20
2018-02-13T20:19:40.564Z,41.63
2018-02-13T20:22:08.084Z,17.73
2018-02-13T20:24:35.626Z,12.30
2018-02-13T20:27:03.119Z,19.90
2018-02-13T20:29:30.618Z,15.50
2018-02-13T20:31:58.127Z,17.37
2018-02-13T20:34:25.687Z,16.10
2018-02-13T20:36:53.219Z,13.87
2018-02-13T20:39:20.914Z,14.90
2018-02-13T20:41:49.927Z,19.17
2018-02-13T20:44:17.424Z,14.70
2018-02-13T20:46:45.086Z,19.80
2018-02-13T20:49:12.603Z,16.17
2018-02-13T20:51:40.323Z,15.03
2018-02-13T20:54:08.117Z,14.27
2018-02-13T20:56:35.856Z,21.97
2018-02-13T20:59:03.815Z,26.87
2018-02-13T21:01:31.691Z,19.43
2018-02-13T21:03:59.203Z,19.70
2018-02-13T21:06:26.937Z,15.73
2018-02-13T21:08:55.237Z,14.40
2018-02-13T21:11:22.720Z,28.67
2018-02-13T21:13:50.232Z,20.13
2018-02-13T21:16:17.731Z,17.00
2018-02-13T21:18:45.421Z,19.63
2018-02-13T21:21:12.937Z,44.30
2018-02-13T21:23:41.002Z,26.90
2018-02-13T21:26:08.491Z,18.37
2018-02-13T21:28:36.055Z,15.97
2018-02-13T21:31:03.559Z,17.47
2018-02-13T21:33:31.604Z,16.90
2018-02-13T21:35:59.544Z,17.10
2018-02-13T21:38:27.110Z,25.07
2018-02-13T21:40:54.868Z,16.93
2018-02-13T21:43:22.563Z,18.17
2018-02-13T21:45:50.184Z,22.57
2018-02-13T21:48:17.699Z,21.73
2018-02-13T21:50:45.319Z,15.53
2018-02-13T21:53:12.815Z,16.90
2018-02-13T21:55:40.333Z,15.40
2018-02-13T21:58:07.837Z,18.67
2018-02-13T22:00:35.613Z,19.80
2018-02-13T22:03:03.111Z,21.97
2018-02-13T22:05:30.795Z,16.60
2018-02-13T22:07:58.304Z,18.83
2018-02-13T22:10:26.023Z,23.40
2018-02-13T22:12:53.571Z,14.63
2018-02-13T22:15:21.220Z,17.73
2018-02-13T22:17:48.999Z,24.33
2018-02-13T22:20:16.504Z,20.03
2018-02-13T22:22:44.004Z,18.47
2018-02-13T22:25:11.527Z,22.97
2018-02-13T22:27:39.119Z,15.70
2018-02-13T22:30:06.810Z,15.77
2018-02-13T22:32:34.312Z,15.70
2018-02-13T22:35:02.098Z,15.57
2018-02-13T22:37:29.590Z,17.77
2018-02-13T22:39:57.631Z,18.00
2018-02-13T22:42:25.131Z,20.33
2018-02-13T22:44:52.643Z,19.70
2018-02-13T22:47:20.130Z,16.03
2018-02-13T22:49:47.776Z,27.73
2018-02-13T22:52:15.300Z,22.13
2018-02-13T22:54:42.949Z,16.00
2018-02-13T22:57:10.739Z,20.00
2018-02-13T22:59:38.263Z,18.27
2018-02-13T23:02:05.758Z,22.77
2018-02-13T23:04:33.459Z,17.43
2018-02-13T23:07:00.953Z,16.67
2018-02-13T23:09:28.635Z,16.43
2018-02-13T23:11:56.174Z,18.63
2018-02-13T23:14:23.872Z,20.10
2018-02-13T23:16:51.584Z,19.83
2018-02-13T23:19:19.079Z,23.53
2018-02-13T23:21:46.846Z,17.03
2018-02-13T23:24:14.343Z,18.27
2018-02-13T23:26:42.039Z,18.90
2018-02-13T23:29:09.831Z,15.77
2018-02-13T23:31:37.603Z,14.20
2018-02-13T23:34:05.111Z,18.60
2018-02-13T23:36:32.797Z,29.97
2018-02-13T23:39:00.575Z,14.97
2018-02-13T23:41:28.341Z,23.33
2018-02-13T23:43:55.839Z,16.30
2018-02-13T23:46:24.267Z,17.50
2018-02-13T23:48:51.931Z,18.70
2018-02-13T23:51:19.948Z,14.37
2018-02-13T23:53:47.449Z,22.60
2018-02-13T23:56:15.222Z,18.40
2018-02-13T23:58:42.983Z,19.20
